CheckWX is a tool to help pilots better visualize weather data.  It is not intended as a substitute for an official pre-flight weather briefing.

10:12:31 UTC

KERI TAF
Erie International / Tom Ridge Field Airport
Erie, Pennsylvania, USA
KERI 260520Z 2606/2706 20008KT P6SM SCT250 FM261600 25011G17KT P6SM SCT050 FM262200 23005KT P6SM SCT250

Jun-26@
06:00 UTC

Jun-26 @ 06:00 UTC

Jun-26@
16:00 UTC

Jun-26 @ 16:00 UTC

KERI 260520Z 2606/2706 20008KT P6SM SCT250
Wind
  • 200° at 8 KTS
Cloud Levels
  • Scattered at 25,000' AGL

Jun-26@
16:00 UTC

Jun-26 @ 16:00 UTC

Jun-26@
22:00 UTC

Jun-26 @ 22:00 UTC

FM261600 25011G17KT P6SM SCT050

From

From Standard forecast or significant change

Wind
  • 250° at 11 KTS
  • {Gusting to 17 KTS
Cloud Levels
  • Scattered at 5,000' AGL

Jun-26@
22:00 UTC

Jun-26 @ 22:00 UTC

Jun-27@
06:00 UTC

Jun-27 @ 06:00 UTC

FM262200 23005KT P6SM SCT250

From

From Standard forecast or significant change

Wind
  • 230° at 5 KTS
Cloud Levels
  • Scattered at 25,000' AGL